sensor_id;sensor_type;location;lat;lon;timestamp;P1;durP1;ratioP1;P2;durP2;ratioP2
24751;SDS011;27246;52.376;4.628;2022-08-20T09:25:35;5.75;;;1.67;;
24751;SDS011;27246;52.376;4.628;2022-08-20T09:30:37;8.73;;;2.00;;
24751;SDS011;27246;52.376;4.628;2022-08-20T10:15:55;6.32;;;1.80;;
24751;SDS011;27246;52.376;4.628;2022-08-20T10:21:13;4.63;;;1.70;;
24751;SDS011;27246;52.376;4.628;2022-08-20T10:26:16;6.50;;;1.88;;
24751;SDS011;27246;52.376;4.628;2022-08-20T10:31:17;5.45;;;1.92;;
24751;SDS011;27246;52.376;4.628;2022-08-20T10:36:19;4.88;;;1.98;;
24751;SDS011;27246;52.376;4.628;2022-08-20T10:41:21;9.48;;;2.55;;
24751;SDS011;27246;52.376;4.628;2022-08-20T10:46:23;4.88;;;1.60;;
24751;SDS011;27246;52.376;4.628;2022-08-20T10:51:25;6.55;;;1.75;;
24751;SDS011;27246;52.376;4.628;2022-08-20T10:56:33;4.68;;;1.65;;
24751;SDS011;27246;52.376;4.628;2022-08-20T11:01:34;8.40;;;1.45;;
24751;SDS011;27246;52.376;4.628;2022-08-20T11:06:37;7.13;;;2.15;;
24751;SDS011;27246;52.376;4.628;2022-08-20T11:11:39;4.57;;;1.30;;
24751;SDS011;27246;52.376;4.628;2022-08-20T11:16:40;7.53;;;1.52;;
24751;SDS011;27246;52.376;4.628;2022-08-20T11:21:42;4.15;;;1.65;;
24751;SDS011;27246;52.376;4.628;2022-08-20T11:26:47;4.15;;;1.30;;
24751;SDS011;27246;52.376;4.628;2022-08-20T11:31:50;5.63;;;1.45;;
24751;SDS011;27246;52.376;4.628;2022-08-20T11:36:52;5.32;;;1.85;;
24751;SDS011;27246;52.376;4.628;2022-08-20T11:41:54;7.43;;;1.83;;
24751;SDS011;27246;52.376;4.628;2022-08-20T11:46:58;5.20;;;1.80;;
24751;SDS011;27246;52.376;4.628;2022-08-20T11:52:03;4.97;;;1.85;;
24751;SDS011;27246;52.376;4.628;2022-08-20T11:57:06;4.53;;;1.48;;
24751;SDS011;27246;52.376;4.628;2022-08-20T12:02:07;8.50;;;2.15;;
24751;SDS011;27246;52.376;4.628;2022-08-20T12:07:14;5.78;;;2.28;;
24751;SDS011;27246;52.376;4.628;2022-08-20T12:12:18;8.10;;;1.80;;
24751;SDS011;27246;52.376;4.628;2022-08-20T12:17:23;5.25;;;1.40;;
24751;SDS011;27246;52.376;4.628;2022-08-20T12:22:27;7.45;;;1.92;;
24751;SDS011;27246;52.376;4.628;2022-08-20T12:27:29;8.25;;;1.70;;
24751;SDS011;27246;52.376;4.628;2022-08-20T12:32:32;4.43;;;1.25;;
24751;SDS011;27246;52.376;4.628;2022-08-20T12:37:34;5.32;;;1.88;;
24751;SDS011;27246;52.376;4.628;2022-08-20T12:42:36;5.68;;;1.75;;
24751;SDS011;27246;52.376;4.628;2022-08-20T12:47:40;7.28;;;1.55;;
24751;SDS011;27246;52.376;4.628;2022-08-20T12:52:45;8.23;;;1.85;;
24751;SDS011;27246;52.376;4.628;2022-08-20T12:57:49;9.30;;;1.90;;
24751;SDS011;27246;52.376;4.628;2022-08-20T13:02:54;8.00;;;2.28;;
24751;SDS011;27246;52.376;4.628;2022-08-20T13:07:58;2.63;;;1.27;;
24751;SDS011;27246;52.376;4.628;2022-08-20T13:13:00;6.30;;;1.83;;
24751;SDS011;27246;52.376;4.628;2022-08-20T13:18:03;8.65;;;2.65;;
24751;SDS011;27246;52.376;4.628;2022-08-20T13:23:06;7.03;;;1.98;;
24751;SDS011;27246;52.376;4.628;2022-08-20T13:28:08;5.60;;;1.88;;
24751;SDS011;27246;52.376;4.628;2022-08-20T13:33:10;6.72;;;2.05;;
24751;SDS011;27246;52.376;4.628;2022-08-20T13:38:12;4.20;;;1.80;;
24751;SDS011;27246;52.376;4.628;2022-08-20T13:43:13;4.55;;;1.90;;
24751;SDS011;27246;52.376;4.628;2022-08-20T13:48:15;5.88;;;2.25;;
24751;SDS011;27246;52.376;4.628;2022-08-20T13:53:17;3.13;;;1.60;;
24751;SDS011;27246;52.376;4.628;2022-08-20T13:58:19;6.47;;;2.17;;
24751;SDS011;27246;52.376;4.628;2022-08-20T14:03:23;4.85;;;2.15;;
24751;SDS011;27246;52.376;4.628;2022-08-20T14:08:27;6.15;;;1.40;;
24751;SDS011;27246;52.376;4.628;2022-08-20T14:13:29;2.63;;;1.65;;
24751;SDS011;27246;52.376;4.628;2022-08-20T14:18:31;5.03;;;1.77;;
24751;SDS011;27246;52.376;4.628;2022-08-20T14:23:33;4.70;;;1.42;;
24751;SDS011;27246;52.376;4.628;2022-08-20T14:28:37;4.50;;;1.40;;
24751;SDS011;27246;52.376;4.628;2022-08-20T14:33:39;5.53;;;1.60;;
24751;SDS011;27246;52.376;4.628;2022-08-20T14:38:45;6.40;;;1.58;;
24751;SDS011;27246;52.376;4.628;2022-08-20T14:43:46;6.55;;;1.80;;
24751;SDS011;27246;52.376;4.628;2022-08-20T14:48:48;3.00;;;1.08;;
24751;SDS011;27246;52.376;4.628;2022-08-20T14:53:53;4.28;;;1.30;;
24751;SDS011;27246;52.376;4.628;2022-08-20T14:58:55;4.32;;;1.15;;
24751;SDS011;27246;52.376;4.628;2022-08-20T15:03:57;5.63;;;1.65;;
24751;SDS011;27246;52.376;4.628;2022-08-20T15:08:59;3.65;;;1.20;;
24751;SDS011;27246;52.376;4.628;2022-08-20T15:14:00;5.65;;;0.98;;
24751;SDS011;27246;52.376;4.628;2022-08-20T15:19:02;2.50;;;1.10;;
24751;SDS011;27246;52.376;4.628;2022-08-20T15:24:05;4.78;;;1.40;;
24751;SDS011;27246;52.376;4.628;2022-08-20T15:29:38;5.90;;;1.20;;
24751;SDS011;27246;52.376;4.628;2022-08-20T15:34:40;2.72;;;1.10;;
24751;SDS011;27246;52.376;4.628;2022-08-20T15:39:43;4.72;;;1.00;;
24751;SDS011;27246;52.376;4.628;2022-08-20T15:44:45;4.50;;;2.00;;
24751;SDS011;27246;52.376;4.628;2022-08-20T15:49:48;4.05;;;1.33;;
24751;SDS011;27246;52.376;4.628;2022-08-20T15:54:53;6.50;;;1.35;;
24751;SDS011;27246;52.376;4.628;2022-08-20T16:10:17;3.58;;;1.00;;
24751;SDS011;27246;52.376;4.628;2022-08-20T16:15:28;2.33;;;1.20;;
24751;SDS011;27246;52.376;4.628;2022-08-20T16:20:33;3.40;;;1.48;;
24751;SDS011;27246;52.376;4.628;2022-08-20T16:25:55;4.23;;;1.50;;
24751;SDS011;27246;52.376;4.628;2022-08-20T16:31:18;3.25;;;1.20;;
24751;SDS011;27246;52.376;4.628;2022-08-20T16:41:43;5.68;;;3.67;;
24751;SDS011;27246;52.376;4.628;2022-08-20T16:46:48;5.80;;;1.58;;
24751;SDS011;27246;52.376;4.628;2022-08-20T16:51:58;2.75;;;1.40;;
24751;SDS011;27246;52.376;4.628;2022-08-20T16:57:02;2.90;;;1.40;;
24751;SDS011;27246;52.376;4.628;2022-08-20T17:02:07;4.60;;;1.35;;
24751;SDS011;27246;52.376;4.628;2022-08-20T17:07:11;7.03;;;1.92;;
24751;SDS011;27246;52.376;4.628;2022-08-20T17:12:23;7.80;;;1.58;;
24751;SDS011;27246;52.376;4.628;2022-08-20T17:17:29;5.05;;;1.67;;
24751;SDS011;27246;52.376;4.628;2022-08-20T17:22:38;5.18;;;1.85;;
24751;SDS011;27246;52.376;4.628;2022-08-20T17:27:42;3.72;;;1.40;;
24751;SDS011;27246;52.376;4.628;2022-08-20T17:32:55;4.95;;;1.33;;
24751;SDS011;27246;52.376;4.628;2022-08-20T17:38:00;3.33;;;1.08;;
24751;SDS011;27246;52.376;4.628;2022-08-20T17:43:05;4.93;;;1.77;;
24751;SDS011;27246;52.376;4.628;2022-08-20T17:48:14;3.17;;;1.27;;
24751;SDS011;27246;52.376;4.628;2022-08-20T17:53:23;4.30;;;1.40;;
24751;SDS011;27246;52.376;4.628;2022-08-20T17:58:34;4.72;;;1.27;;
24751;SDS011;27246;52.376;4.628;2022-08-20T18:03:55;4.60;;;1.40;;
24751;SDS011;27246;52.376;4.628;2022-08-20T18:09:02;8.68;;;1.83;;
24751;SDS011;27246;52.376;4.628;2022-08-20T18:24:52;6.82;;;1.73;;
24751;SDS011;27246;52.376;4.628;2022-08-20T18:30:02;3.53;;;1.30;;
24751;SDS011;27246;52.376;4.628;2022-08-20T18:35:33;5.97;;;1.70;;
24751;SDS011;27246;52.376;4.628;2022-08-20T18:40:46;3.70;;;1.83;;
24751;SDS011;27246;52.376;4.628;2022-08-20T18:46:10;5.45;;;1.45;;
24751;SDS011;27246;52.376;4.628;2022-08-20T18:51:19;5.38;;;2.03;;
24751;SDS011;27246;52.376;4.628;2022-08-20T18:56:34;3.72;;;1.52;;
24751;SDS011;27246;52.376;4.628;2022-08-20T19:01:39;6.32;;;1.60;;
24751;SDS011;27246;52.376;4.628;2022-08-20T19:06:54;4.68;;;1.50;;
24751;SDS011;27246;52.376;4.628;2022-08-20T19:12:10;2.97;;;1.58;;
24751;SDS011;27246;52.376;4.628;2022-08-20T19:22:53;3.90;;;1.70;;
24751;SDS011;27246;52.376;4.628;2022-08-20T19:28:06;4.97;;;1.85;;
24751;SDS011;27246;52.376;4.628;2022-08-20T19:33:29;4.15;;;1.27;;
24751;SDS011;27246;52.376;4.628;2022-08-20T19:38:49;3.75;;;1.67;;
24751;SDS011;27246;52.376;4.628;2022-08-20T19:43:53;6.30;;;2.42;;
24751;SDS011;27246;52.376;4.628;2022-08-20T19:54:25;5.63;;;1.70;;
24751;SDS011;27246;52.376;4.628;2022-08-20T19:59:28;4.72;;;1.60;;
24751;SDS011;27246;52.376;4.628;2022-08-20T20:04:40;3.53;;;2.15;;
24751;SDS011;27246;52.376;4.628;2022-08-20T20:09:58;6.97;;;2.25;;
24751;SDS011;27246;52.376;4.628;2022-08-20T20:15:01;7.25;;;3.17;;
24751;SDS011;27246;52.376;4.628;2022-08-20T20:25:59;3.92;;;2.85;;
24751;SDS011;27246;52.376;4.628;2022-08-20T20:31:04;7.35;;;2.92;;
24751;SDS011;27246;52.376;4.628;2022-08-20T20:36:08;3.83;;;2.60;;
24751;SDS011;27246;52.376;4.628;2022-08-20T20:41:22;4.43;;;2.67;;
24751;SDS011;27246;52.376;4.628;2022-08-20T20:46:27;6.15;;;2.28;;
24751;SDS011;27246;52.376;4.628;2022-08-20T20:51:31;7.82;;;2.78;;
24751;SDS011;27246;52.376;4.628;2022-08-20T20:56:39;5.70;;;3.03;;
24751;SDS011;27246;52.376;4.628;2022-08-20T21:01:46;7.03;;;3.10;;
24751;SDS011;27246;52.376;4.628;2022-08-20T21:06:54;4.50;;;2.80;;
24751;SDS011;27246;52.376;4.628;2022-08-20T21:12:00;4.53;;;2.90;;
24751;SDS011;27246;52.376;4.628;2022-08-20T21:17:04;3.38;;;2.50;;
24751;SDS011;27246;52.376;4.628;2022-08-20T21:22:09;3.83;;;2.30;;
24751;SDS011;27246;52.376;4.628;2022-08-20T21:27:11;5.32;;;2.30;;
24751;SDS011;27246;52.376;4.628;2022-08-20T21:32:13;7.00;;;3.13;;
24751;SDS011;27246;52.376;4.628;2022-08-20T21:37:18;5.53;;;3.63;;
24751;SDS011;27246;52.376;4.628;2022-08-20T21:42:20;6.70;;;2.63;;
24751;SDS011;27246;52.376;4.628;2022-08-20T21:47:30;5.03;;;3.15;;
24751;SDS011;27246;52.376;4.628;2022-08-20T21:52:31;5.47;;;2.83;;
24751;SDS011;27246;52.376;4.628;2022-08-20T21:57:35;5.80;;;2.30;;
24751;SDS011;27246;52.376;4.628;2022-08-20T22:02:37;4.18;;;2.30;;
24751;SDS011;27246;52.376;4.628;2022-08-20T22:07:41;4.22;;;2.75;;
24751;SDS011;27246;52.376;4.628;2022-08-20T22:12:43;4.20;;;2.25;;
24751;SDS011;27246;52.376;4.628;2022-08-20T22:17:45;6.82;;;2.60;;
24751;SDS011;27246;52.376;4.628;2022-08-20T22:22:47;8.30;;;3.50;;
24751;SDS011;27246;52.376;4.628;2022-08-20T22:27:49;5.28;;;3.42;;
24751;SDS011;27246;52.376;4.628;2022-08-20T22:32:51;6.57;;;3.53;;
24751;SDS011;27246;52.376;4.628;2022-08-20T22:37:59;3.47;;;2.85;;
24751;SDS011;27246;52.376;4.628;2022-08-20T22:43:01;5.07;;;3.00;;
24751;SDS011;27246;52.376;4.628;2022-08-20T22:48:06;7.47;;;3.10;;
24751;SDS011;27246;52.376;4.628;2022-08-20T22:53:08;4.38;;;2.75;;
24751;SDS011;27246;52.376;4.628;2022-08-20T22:58:11;6.28;;;2.80;;
24751;SDS011;27246;52.376;4.628;2022-08-20T23:03:14;6.75;;;3.20;;
24751;SDS011;27246;52.376;4.628;2022-08-20T23:08:39;8.15;;;3.53;;
24751;SDS011;27246;52.376;4.628;2022-08-20T23:13:42;7.85;;;4.05;;
24751;SDS011;27246;52.376;4.628;2022-08-20T23:18:43;7.40;;;3.88;;
24751;SDS011;27246;52.376;4.628;2022-08-20T23:23:45;7.05;;;3.67;;
24751;SDS011;27246;52.376;4.628;2022-08-20T23:28:47;6.97;;;3.30;;
24751;SDS011;27246;52.376;4.628;2022-08-20T23:33:49;10.95;;;4.05;;
24751;SDS011;27246;52.376;4.628;2022-08-20T23:38:51;10.23;;;3.63;;
24751;SDS011;27246;52.376;4.628;2022-08-20T23:43:53;6.57;;;3.35;;
24751;SDS011;27246;52.376;4.628;2022-08-20T23:48:54;10.25;;;3.60;;
24751;SDS011;27246;52.376;4.628;2022-08-20T23:53:56;8.63;;;3.80;;
24751;SDS011;27246;52.376;4.628;2022-08-20T23:58:58;4.43;;;2.70;;
